createdAt,value
2018-05-03T00:01:38.894Z,37.47
2018-05-03T00:04:07.112Z,37.53
2018-05-03T00:06:35.289Z,38.30
2018-05-03T00:09:03.531Z,37.27
2018-05-03T00:11:31.736Z,37.67
2018-05-03T00:14:00.024Z,38.10
2018-05-03T00:16:29.046Z,38.77
2018-05-03T00:18:57.238Z,38.10
2018-05-03T00:21:25.477Z,38.33
2018-05-03T00:23:54.750Z,37.90
2018-05-03T00:26:23.014Z,37.83
2018-05-03T00:28:51.208Z,38.33
2018-05-03T00:31:19.424Z,38.40
2018-05-03T00:33:48.170Z,38.03
2018-05-03T00:36:16.400Z,37.70
2018-05-03T00:38:44.630Z,38.00
2018-05-03T00:41:12.867Z,37.63
2018-05-03T00:43:41.062Z,37.93
2018-05-03T00:46:10.310Z,37.77
2018-05-03T00:48:38.489Z,37.63
2018-05-03T00:51:06.696Z,38.27
2018-05-03T00:53:35.805Z,37.10
2018-05-03T00:56:03.997Z,37.33
2018-05-03T00:58:32.193Z,37.50
2018-05-03T01:01:00.446Z,38.03
2018-05-03T01:03:29.368Z,36.93
2018-05-03T01:05:57.574Z,37.47
2018-05-03T01:08:25.759Z,37.63
2018-05-03T01:10:53.968Z,37.20
2018-05-03T01:13:22.210Z,37.67
2018-05-03T01:15:50.515Z,36.23
2018-05-03T01:18:18.693Z,37.17
2018-05-03T01:20:46.903Z,37.03
2018-05-03T01:23:15.075Z,37.77
2018-05-03T01:25:45.163Z,37.83
2018-05-03T01:28:14.801Z,37.43
2018-05-03T01:30:43.169Z,38.07
2018-05-03T01:33:12.169Z,38.10
2018-05-03T01:35:59.004Z,37.93
2018-05-03T01:38:27.201Z,37.73
2018-05-03T01:40:55.401Z,37.83
2018-05-03T01:43:23.659Z,37.83
2018-05-03T01:45:51.848Z,37.50
2018-05-03T01:48:20.033Z,37.43
2018-05-03T01:50:48.251Z,37.13
2018-05-03T01:53:16.472Z,37.40
2018-05-03T01:55:45.569Z,37.33
2018-05-03T01:58:13.894Z,37.87
2018-05-03T02:00:42.091Z,38.63
2018-05-03T02:03:10.268Z,37.47
2018-05-03T02:05:38.495Z,36.97
2018-05-03T02:08:06.748Z,37.30
2018-05-03T02:10:34.922Z,38.23
2018-05-03T02:13:04.600Z,36.97
2018-05-03T02:15:32.885Z,37.00
2018-05-03T02:18:01.104Z,37.63
2018-05-03T02:20:30.076Z,37.17
2018-05-03T02:22:58.293Z,37.33
2018-05-03T02:25:26.489Z,37.33
2018-05-03T02:27:55.350Z,37.27
2018-05-03T02:30:24.559Z,37.07
2018-05-03T02:32:52.801Z,37.17
2018-05-03T02:35:21.035Z,37.70
2018-05-03T02:37:49.232Z,36.93
2018-05-03T02:40:17.456Z,37.33
2018-05-03T02:42:45.671Z,37.50
2018-05-03T02:45:13.860Z,37.27
2018-05-03T02:47:42.041Z,37.20
2018-05-03T02:50:10.253Z,37.50
2018-05-03T02:52:38.436Z,37.27
2018-05-03T02:55:06.644Z,36.93
2018-05-03T02:57:58.202Z,37.43
2018-05-03T03:00:50.677Z,37.80
2018-05-03T03:03:42.253Z,37.37
2018-05-03T03:06:33.818Z,37.57
2018-05-03T03:09:25.494Z,37.10
2018-05-03T03:15:37.882Z,37.03
2018-05-03T03:18:29.568Z,37.27
2018-05-03T03:24:39.200Z,37.40
2018-05-03T03:27:36.761Z,36.93
2018-05-03T03:34:12.020Z,37.13
2018-05-03T03:40:06.638Z,36.90
2018-05-03T03:43:04.579Z,37.20
2018-05-03T03:45:33.613Z,37.00
2018-05-03T03:48:01.821Z,37.77
2018-05-03T03:50:30.871Z,36.80
2018-05-03T03:52:59.067Z,37.33
2018-05-03T03:55:27.256Z,37.10
2018-05-03T03:57:55.432Z,36.63
2018-05-03T04:00:24.525Z,37.77
2018-05-03T04:02:52.698Z,37.03
2018-05-03T04:05:20.877Z,37.43
2018-05-03T04:07:49.094Z,36.70
2018-05-03T04:10:17.332Z,36.90
2018-05-03T04:12:45.541Z,37.30
2018-05-03T04:15:13.749Z,37.30
2018-05-03T04:17:59.660Z,36.87
2018-05-03T04:21:00.949Z,37.17
2018-05-03T04:24:06.648Z,37.27
2018-05-03T04:26:34.830Z,37.33
2018-05-03T04:29:03.028Z,37.33
2018-05-03T04:31:31.540Z,37.57
2018-05-03T04:33:59.823Z,38.23
2018-05-03T04:36:28.025Z,37.67
2018-05-03T04:38:56.813Z,37.30
2018-05-03T04:41:24.990Z,37.43
2018-05-03T04:43:53.205Z,37.90
2018-05-03T04:46:21.417Z,37.63
2018-05-03T04:48:49.603Z,38.03
2018-05-03T04:51:17.819Z,38.20
2018-05-03T04:53:46.030Z,37.83
2018-05-03T04:56:14.238Z,38.50
2018-05-03T04:58:42.452Z,38.43
2018-05-03T05:01:10.710Z,37.83
2018-05-03T05:03:38.955Z,37.70
2018-05-03T05:06:07.220Z,37.90
2018-05-03T05:08:35.416Z,38.40
2018-05-03T05:11:03.592Z,38.47
2018-05-03T05:13:31.769Z,37.97
2018-05-03T05:15:59.988Z,37.77
2018-05-03T05:18:28.186Z,38.20
2018-05-03T05:20:56.391Z,38.63
2018-05-03T05:23:24.589Z,37.97
2018-05-03T05:25:52.813Z,37.37
2018-05-03T05:28:21.019Z,38.17
2018-05-03T05:30:49.795Z,38.23
2018-05-03T05:33:18.686Z,37.80
2018-05-03T05:35:48.177Z,38.20
2018-05-03T05:38:16.467Z,38.67
2018-05-03T05:40:45.205Z,38.40
2018-05-03T05:43:14.532Z,38.13
2018-05-03T05:45:42.862Z,38.50
2018-05-03T05:48:11.073Z,37.87
2018-05-03T05:50:39.331Z,38.37
2018-05-03T05:53:07.532Z,38.27
2018-05-03T05:55:35.743Z,38.83
2018-05-03T05:58:03.954Z,37.93
2018-05-03T06:00:32.158Z,38.33
2018-05-03T06:03:01.182Z,38.50
2018-05-03T06:05:29.370Z,38.43
2018-05-03T06:07:57.580Z,39.13
2018-05-03T06:10:26.556Z,38.43
2018-05-03T06:12:55.665Z,38.63
2018-05-03T06:15:23.865Z,37.90
2018-05-03T06:17:52.045Z,38.53
2018-05-03T06:20:20.229Z,39.13
2018-05-03T06:22:48.452Z,38.27
2018-05-03T06:25:16.930Z,38.80
2018-05-03T06:27:45.132Z,39.13
2018-05-03T06:30:13.338Z,39.27
2018-05-03T06:32:41.804Z,38.83
2018-05-03T06:35:09.989Z,39.47
2018-05-03T06:37:38.212Z,39.03
2018-05-03T06:40:06.404Z,39.27
2018-05-03T06:42:35.793Z,38.77
2018-05-03T06:45:04.039Z,38.90
2018-05-03T06:47:33.160Z,39.13
2018-05-03T06:50:01.356Z,39.20
2018-05-03T06:52:29.890Z,38.40
2018-05-03T06:54:58.123Z,38.87
2018-05-03T06:57:26.309Z,38.87
2018-05-03T06:59:55.306Z,39.07
2018-05-03T07:02:23.494Z,39.50
2018-05-03T07:04:51.685Z,39.43
2018-05-03T07:07:19.904Z,40.50
2018-05-03T07:09:48.920Z,39.87
2018-05-03T07:12:17.273Z,40.67
2018-05-03T07:14:46.390Z,39.90
2018-05-03T07:17:15.626Z,40.07
2018-05-03T07:19:44.829Z,39.77
2018-05-03T07:22:14.324Z,39.90
2018-05-03T07:24:43.244Z,39.70
2018-05-03T07:27:11.983Z,39.83
2018-05-03T07:29:40.214Z,39.93
2018-05-03T07:32:08.490Z,40.07
2018-05-03T07:34:37.658Z,40.40
2018-05-03T07:37:06.691Z,40.43
2018-05-03T07:39:35.237Z,41.23
2018-05-03T07:42:03.436Z,40.67
2018-05-03T07:44:32.328Z,40.73
2018-05-03T07:47:00.550Z,40.60
2018-05-03T07:49:28.788Z,40.53
2018-05-03T07:51:57.922Z,40.60
2018-05-03T07:54:26.128Z,40.60
2018-05-03T07:56:54.331Z,40.43
2018-05-03T07:59:22.544Z,40.80
2018-05-03T08:01:51.545Z,40.33
2018-05-03T08:04:19.750Z,40.37
2018-05-03T08:06:47.946Z,39.77
2018-05-03T08:09:16.143Z,40.30
2018-05-03T08:11:45.118Z,40.37
2018-05-03T08:14:13.333Z,40.10
2018-05-03T08:16:42.626Z,40.20
2018-05-03T08:19:10.843Z,40.80
2018-05-03T08:21:39.621Z,40.13
2018-05-03T08:24:07.804Z,40.63
2018-05-03T08:26:36.072Z,40.53
2018-05-03T08:29:05.170Z,40.27
2018-05-03T08:31:33.355Z,40.67
2018-05-03T08:34:01.587Z,40.47
2018-05-03T08:36:29.798Z,40.63
2018-05-03T08:38:58.009Z,40.67
2018-05-03T08:41:26.204Z,40.00
2018-05-03T08:43:54.488Z,41.33
2018-05-03T08:46:22.674Z,41.07
2018-05-03T08:48:50.874Z,41.13
2018-05-03T08:51:19.089Z,40.87
2018-05-03T08:53:47.329Z,41.37
2018-05-03T08:56:15.517Z,41.30
2018-05-03T08:58:43.803Z,42.27
2018-05-03T09:01:11.999Z,41.53
2018-05-03T09:03:40.184Z,41.43
2018-05-03T09:06:09.156Z,41.80
2018-05-03T09:08:37.360Z,41.93
2018-05-03T09:11:05.594Z,41.20
2018-05-03T09:13:33.853Z,41.13
2018-05-03T09:16:02.059Z,41.63
2018-05-03T09:18:31.594Z,41.10
2018-05-03T09:20:59.801Z,41.33
2018-05-03T09:23:27.998Z,40.90
2018-05-03T09:25:56.184Z,41.00
2018-05-03T09:28:24.399Z,41.00
2018-05-03T09:30:52.600Z,40.40
2018-05-03T09:33:20.794Z,40.97
2018-05-03T09:35:49.007Z,40.50
2018-05-03T09:38:17.359Z,40.57
2018-05-03T09:40:45.569Z,41.07
2018-05-03T09:43:13.777Z,41.07
2018-05-03T09:45:42.543Z,40.80
2018-05-03T09:48:10.739Z,41.33
2018-05-03T09:50:38.948Z,40.97
2018-05-03T09:53:07.144Z,40.37
2018-05-03T09:55:36.458Z,40.90
2018-05-03T09:58:04.687Z,40.43
2018-05-03T10:00:33.559Z,40.63
2018-05-03T10:03:02.016Z,40.50
2018-05-03T10:05:30.289Z,40.73
2018-05-03T10:07:59.212Z,41.03
2018-05-03T10:10:27.404Z,40.60
2018-05-03T10:12:55.626Z,40.80
2018-05-03T10:15:23.827Z,41.47
2018-05-03T10:17:52.000Z,40.70
2018-05-03T10:20:20.227Z,41.37
2018-05-03T10:22:49.403Z,40.57
2018-05-03T10:25:17.601Z,41.53
2018-05-03T10:27:47.462Z,40.60
2018-05-03T10:30:15.706Z,40.67
2018-05-03T10:32:43.857Z,41.27
2018-05-03T10:35:12.115Z,41.67
2018-05-03T10:37:40.298Z,40.80
2018-05-03T10:40:08.477Z,41.17
2018-05-03T10:42:36.740Z,40.60
2018-05-03T10:47:39.513Z,41.47
2018-05-03T10:50:07.968Z,41.37
2018-05-03T10:52:36.174Z,41.70
2018-05-03T10:55:04.445Z,41.03
2018-05-03T10:57:32.668Z,41.53
2018-05-03T11:00:00.852Z,41.83
2018-05-03T11:02:29.076Z,41.57
2018-05-03T11:04:57.278Z,41.53
2018-05-03T11:07:25.470Z,41.67
2018-05-03T11:09:53.698Z,41.23
2018-05-03T11:12:21.899Z,41.67
2018-05-03T11:14:50.088Z,41.53
2018-05-03T11:17:18.351Z,41.93
2018-05-03T11:19:46.553Z,41.73
2018-05-03T11:22:15.511Z,41.27
2018-05-03T11:24:43.760Z,41.27
2018-05-03T11:27:12.002Z,41.97
2018-05-03T11:29:40.953Z,41.67
2018-05-03T11:32:09.208Z,41.70
2018-05-03T11:34:37.515Z,42.53
2018-05-03T11:37:05.741Z,41.83
2018-05-03T11:39:33.941Z,41.67
2018-05-03T11:42:02.153Z,41.93
2018-05-03T11:44:30.331Z,41.53
2018-05-03T11:46:58.543Z,41.60
2018-05-03T11:49:26.717Z,41.70
2018-05-03T11:51:54.939Z,41.80
2018-05-03T11:54:23.157Z,41.87
2018-05-03T11:56:51.393Z,42.57
2018-05-03T11:59:19.819Z,41.53
2018-05-03T12:01:47.997Z,42.00
2018-05-03T12:04:16.475Z,41.57
2018-05-03T12:06:44.675Z,42.33
2018-05-03T12:09:12.875Z,41.33
2018-05-03T12:11:41.144Z,42.03
2018-05-03T12:14:09.379Z,42.63
2018-05-03T12:16:37.585Z,42.67
2018-05-03T12:19:05.779Z,42.27
2018-05-03T12:21:34.328Z,42.23
2018-05-03T12:24:03.221Z,41.60
2018-05-03T12:26:39.462Z,41.47
2018-05-03T12:29:07.693Z,41.33
2018-05-03T12:31:35.908Z,41.53
2018-05-03T12:34:04.106Z,41.93
2018-05-03T12:36:32.473Z,41.67
2018-05-03T12:39:00.663Z,41.73
2018-05-03T12:41:28.838Z,41.50
2018-05-03T12:43:57.038Z,42.20
2018-05-03T12:46:26.167Z,41.80
2018-05-03T12:48:54.385Z,41.47
2018-05-03T12:51:23.296Z,41.53
2018-05-03T12:53:52.314Z,41.33
2018-05-03T12:56:20.495Z,42.13
2018-05-03T12:58:48.705Z,42.63
2018-05-03T13:01:16.892Z,42.17
2018-05-03T13:03:45.069Z,42.70
2018-05-03T13:06:13.349Z,41.73
2018-05-03T13:08:41.524Z,42.43
2018-05-03T13:11:10.012Z,42.03
2018-05-03T13:13:38.249Z,41.87
2018-05-03T13:16:06.451Z,41.87
2018-05-03T13:18:34.624Z,42.00
2018-05-03T13:21:02.829Z,41.83
2018-05-03T13:23:31.177Z,41.70
2018-05-03T13:25:59.349Z,46.97
2018-05-03T13:28:27.568Z,41.53
2018-05-03T13:30:55.752Z,43.10
2018-05-03T13:33:23.944Z,41.93
2018-05-03T13:35:52.209Z,42.33
2018-05-03T13:38:20.473Z,41.93
2018-05-03T13:40:48.734Z,42.40
2018-05-03T13:43:16.963Z,43.27
2018-05-03T13:45:45.186Z,42.90
2018-05-03T13:48:13.406Z,43.33
2018-05-03T13:50:41.632Z,42.80
2018-05-03T13:53:09.934Z,42.63
2018-05-03T13:55:38.265Z,42.50
2018-05-03T13:58:06.402Z,42.80
2018-05-03T14:00:34.634Z,44.00
2018-05-03T14:03:02.861Z,42.73
2018-05-03T14:05:31.047Z,43.87
2018-05-03T14:07:59.238Z,42.80
2018-05-03T14:10:27.471Z,42.63
2018-05-03T14:12:56.485Z,43.63
2018-05-03T14:15:25.498Z,43.33
2018-05-03T14:17:53.745Z,43.70
2018-05-03T14:20:21.954Z,43.00
2018-05-03T14:22:50.136Z,43.70
2018-05-03T14:25:18.357Z,43.67
2018-05-03T14:27:47.599Z,43.90
2018-05-03T14:30:15.805Z,43.80
2018-05-03T14:32:44.027Z,44.13
2018-05-03T14:35:12.234Z,43.53
2018-05-03T14:37:40.451Z,44.30
2018-05-03T14:40:08.679Z,43.80
2018-05-03T14:42:36.851Z,44.17
2018-05-03T14:45:05.046Z,44.03
2018-05-03T14:47:33.269Z,43.80
2018-05-03T14:50:01.447Z,43.77
2018-05-03T14:52:29.660Z,43.43
2018-05-03T14:54:57.902Z,43.20
2018-05-03T14:57:26.103Z,43.77
2018-05-03T14:59:54.276Z,43.07
2018-05-03T15:02:22.482Z,43.30
2018-05-03T15:04:50.675Z,43.23
2018-05-03T15:07:18.925Z,43.23
2018-05-03T15:09:47.480Z,43.00
2018-05-03T15:12:15.738Z,43.63
2018-05-03T15:14:43.972Z,44.00
2018-05-03T15:17:12.237Z,43.33
2018-05-03T15:19:40.438Z,42.70
2018-05-03T15:22:08.667Z,42.73
2018-05-03T15:24:36.958Z,43.20
2018-05-03T15:27:05.170Z,42.37
2018-05-03T15:29:33.384Z,41.90
2018-05-03T15:32:01.592Z,42.50
2018-05-03T15:34:29.836Z,42.90
2018-05-03T15:36:58.039Z,42.40
2018-05-03T15:39:26.286Z,42.70
2018-05-03T15:41:54.614Z,42.73
2018-05-03T15:44:22.839Z,42.63
2018-05-03T15:46:51.015Z,43.10
2018-05-03T15:49:19.213Z,42.60
2018-05-03T15:51:47.494Z,43.23
2018-05-03T15:54:15.727Z,42.90
2018-05-03T15:56:43.915Z,43.60
2018-05-03T15:59:12.118Z,42.57
2018-05-03T16:01:40.346Z,42.63
2018-05-03T16:04:08.585Z,43.23
2018-05-03T16:06:36.840Z,43.17
2018-05-03T16:09:05.093Z,42.67
2018-05-03T16:11:33.279Z,42.90
2018-05-03T16:14:01.488Z,42.70
2018-05-03T16:16:29.692Z,42.80
2018-05-03T16:18:57.931Z,43.30
2018-05-03T16:21:26.207Z,43.10
2018-05-03T16:23:54.392Z,43.73
2018-05-03T16:26:23.369Z,42.70
2018-05-03T16:28:51.570Z,42.73
2018-05-03T16:31:19.773Z,42.63
2018-05-03T16:33:48.740Z,42.60
2018-05-03T16:36:16.955Z,43.00
2018-05-03T16:38:45.163Z,43.57
2018-05-03T16:41:13.350Z,43.53
2018-05-03T16:43:41.560Z,43.10
2018-05-03T16:46:09.753Z,42.73
2018-05-03T16:48:39.409Z,43.20
2018-05-03T16:51:08.415Z,42.80
2018-05-03T16:53:37.380Z,42.57
2018-05-03T16:56:05.624Z,42.33
2018-05-03T16:58:33.850Z,42.23
2018-05-03T17:01:02.796Z,42.27
2018-05-03T17:03:30.989Z,42.40
2018-05-03T17:05:59.208Z,42.33
2018-05-03T17:08:27.404Z,41.80
2018-05-03T17:10:55.595Z,42.20
2018-05-03T17:13:23.835Z,41.90
2018-05-03T17:15:52.046Z,43.27
2018-05-03T17:18:20.778Z,42.27
2018-05-03T17:20:49.808Z,42.90
2018-05-03T17:23:18.936Z,42.13
2018-05-03T17:25:47.718Z,42.10
2018-05-03T17:28:15.956Z,42.00
2018-05-03T17:30:44.274Z,42.30
2018-05-03T17:33:13.563Z,41.73
2018-05-03T17:35:41.768Z,42.27
2018-05-03T17:38:09.985Z,42.70
2018-05-03T17:40:38.190Z,41.47
2018-05-03T17:43:06.424Z,42.43
2018-05-03T17:45:34.613Z,42.23
2018-05-03T17:48:02.814Z,42.43
2018-05-03T17:50:31.018Z,42.13
2018-05-03T17:52:59.219Z,41.97
2018-05-03T17:55:27.408Z,42.00
2018-05-03T17:57:55.614Z,42.00
2018-05-03T18:00:23.814Z,41.40
2018-05-03T18:02:52.679Z,41.77
2018-05-03T18:05:20.899Z,41.70
2018-05-03T18:07:49.130Z,41.27
2018-05-03T18:10:18.635Z,43.90
2018-05-03T18:12:48.543Z,41.73
2018-05-03T18:15:17.472Z,41.83
2018-05-03T18:17:45.729Z,41.63
2018-05-03T18:20:13.984Z,41.87
2018-05-03T18:22:42.192Z,42.60
2018-05-03T18:25:10.858Z,41.43
2018-05-03T18:27:39.171Z,41.63
2018-05-03T18:30:07.381Z,42.63
2018-05-03T18:32:35.619Z,41.97
2018-05-03T18:35:03.861Z,41.20
2018-05-03T18:37:33.036Z,41.70
2018-05-03T18:40:01.225Z,41.63
2018-05-03T18:42:29.514Z,41.00
2018-05-03T18:44:57.886Z,41.00
2018-05-03T18:47:26.094Z,41.00
2018-05-03T18:49:54.370Z,41.90
2018-05-03T18:52:22.667Z,41.73
2018-05-03T18:54:51.809Z,42.03
2018-05-03T18:57:20.383Z,42.40
2018-05-03T18:59:50.105Z,42.10
2018-05-03T19:02:19.327Z,41.77
2018-05-03T19:04:48.299Z,42.97
2018-05-03T19:07:20.539Z,41.60
2018-05-03T19:09:48.769Z,41.70
2018-05-03T19:12:17.020Z,41.47
2018-05-03T19:14:46.148Z,41.70
2018-05-03T19:17:14.393Z,41.33
2018-05-03T19:19:43.601Z,41.40
2018-05-03T19:22:11.848Z,41.70
2018-05-03T19:24:40.039Z,41.43
2018-05-03T19:27:08.278Z,41.30
2018-05-03T19:29:37.239Z,41.60
2018-05-03T19:32:05.537Z,41.97
2018-05-03T19:34:33.788Z,41.43
2018-05-03T19:37:02.225Z,41.47
2018-05-03T19:39:31.160Z,41.73
2018-05-03T19:41:59.866Z,43.13
2018-05-03T19:44:28.691Z,41.03
2018-05-03T19:46:56.916Z,41.17
2018-05-03T19:49:25.123Z,41.23
2018-05-03T19:51:53.363Z,41.47
2018-05-03T19:54:21.649Z,41.70
2018-05-03T19:56:50.737Z,41.30
2018-05-03T19:59:18.986Z,41.50
2018-05-03T20:01:48.165Z,41.60
2018-05-03T20:04:16.390Z,40.93
2018-05-03T20:06:44.597Z,41.73
2018-05-03T20:09:12.876Z,41.70
2018-05-03T20:11:42.751Z,40.97
2018-05-03T20:14:11.099Z,42.00
2018-05-03T20:16:39.326Z,41.13
2018-05-03T20:19:07.556Z,41.07
2018-05-03T20:21:35.771Z,40.97
2018-05-03T20:24:04.001Z,41.40
2018-05-03T20:26:32.209Z,40.83
2018-05-03T20:31:34.724Z,41.17
2018-05-03T20:34:03.737Z,41.07
2018-05-03T20:36:32.067Z,41.80
2018-05-03T20:39:00.359Z,41.37
2018-05-03T20:41:28.610Z,42.00
2018-05-03T20:43:56.791Z,41.17
2018-05-03T20:46:25.014Z,41.37
2018-05-03T20:48:53.242Z,40.60
2018-05-03T20:51:21.453Z,40.20
2018-05-03T20:53:50.449Z,40.57
2018-05-03T20:56:19.720Z,40.77
2018-05-03T20:58:48.402Z,40.73
2018-05-03T21:01:16.581Z,40.33
2018-05-03T21:03:44.791Z,40.47
2018-05-03T21:06:13.022Z,40.83
2018-05-03T21:08:41.258Z,40.93
2018-05-03T21:11:09.483Z,41.70
2018-05-03T21:13:38.005Z,41.30
2018-05-03T21:16:06.229Z,40.77
2018-05-03T21:18:35.816Z,40.90
2018-05-03T21:21:04.049Z,40.13
2018-05-03T21:23:32.265Z,40.90
2018-05-03T21:26:02.185Z,41.03
2018-05-03T21:28:30.458Z,40.80
2018-05-03T21:30:58.636Z,40.90
2018-05-03T21:33:26.868Z,41.20
2018-05-03T21:35:55.218Z,40.20
2018-05-03T21:38:23.407Z,41.27
2018-05-03T21:40:52.407Z,40.07
2018-05-03T21:43:21.345Z,40.53
2018-05-03T21:45:49.604Z,41.20
2018-05-03T21:48:17.800Z,40.50
2018-05-03T21:50:45.997Z,41.50
2018-05-03T21:53:14.192Z,40.17
2018-05-03T21:55:42.422Z,40.73
2018-05-03T21:58:10.626Z,40.67
2018-05-03T22:00:38.870Z,40.97
2018-05-03T22:03:07.049Z,40.83
2018-05-03T22:05:35.289Z,40.50
2018-05-03T22:08:04.265Z,41.17
2018-05-03T22:10:33.265Z,40.83
2018-05-03T22:13:02.306Z,39.87
2018-05-03T22:15:30.481Z,40.63
2018-05-03T22:17:58.685Z,40.87
2018-05-03T22:20:26.996Z,40.50
2018-05-03T22:22:55.181Z,39.97
2018-05-03T22:25:23.390Z,40.10
2018-05-03T22:27:52.096Z,40.70
2018-05-03T22:30:20.286Z,40.27
2018-05-03T22:32:48.499Z,40.23
2018-05-03T22:35:16.795Z,39.73
2018-05-03T22:37:45.025Z,40.07
2018-05-03T22:40:13.274Z,40.30
2018-05-03T22:42:41.498Z,40.23
2018-05-03T22:45:09.686Z,40.00
2018-05-03T22:47:37.881Z,39.97
2018-05-03T22:50:06.126Z,40.10
2018-05-03T22:52:34.422Z,40.00
2018-05-03T22:55:02.601Z,40.37
2018-05-03T22:57:30.800Z,40.47
2018-05-03T22:59:58.979Z,40.70
2018-05-03T23:02:27.169Z,40.77
2018-05-03T23:04:56.295Z,40.93
2018-05-03T23:07:24.521Z,40.77
2018-05-03T23:09:52.772Z,40.30
2018-05-03T23:12:20.972Z,40.87
2018-05-03T23:14:49.148Z,40.13
2018-05-03T23:17:17.337Z,41.13
2018-05-03T23:19:46.315Z,41.00
2018-05-03T23:22:16.450Z,40.67
2018-05-03T23:24:44.580Z,40.07
2018-05-03T23:27:12.790Z,40.03
2018-05-03T23:29:41.015Z,40.43
2018-05-03T23:32:10.300Z,40.40
2018-05-03T23:34:38.534Z,40.73
2018-05-03T23:37:06.720Z,39.77
2018-05-03T23:39:34.925Z,39.87
2018-05-03T23:42:03.845Z,39.77
2018-05-03T23:44:32.053Z,40.53
2018-05-03T23:47:00.226Z,40.50
2018-05-03T23:49:28.437Z,40.20
2018-05-03T23:51:57.598Z,40.60
2018-05-03T23:54:25.771Z,40.00
2018-05-03T23:56:53.974Z,40.80
2018-05-03T23:59:22.182Z,40.17
